createdAt,value
2018-06-29T00:01:33.870Z,15.10
2018-06-29T00:06:31.897Z,15.20
2018-06-29T00:09:00.835Z,15.10
2018-06-29T00:13:59.076Z,15.00
2018-06-29T00:16:28.137Z,15.00
2018-06-29T00:18:57.184Z,15.00
2018-06-29T00:23:54.867Z,15.10
2018-06-29T00:26:23.941Z,15.20
2018-06-29T00:28:52.987Z,15.20
2018-06-29T00:31:22.035Z,15.20
2018-06-29T00:33:51.146Z,15.10
2018-06-29T00:36:20.168Z,15.20
2018-06-29T00:38:49.214Z,15.10
2018-06-29T00:41:18.227Z,14.90
2018-06-29T00:43:47.242Z,14.80
2018-06-29T00:46:16.272Z,14.90
2018-06-29T00:51:14.507Z,15.10
2018-06-29T00:53:43.539Z,15.00
2018-06-29T00:56:12.604Z,14.90
2018-06-29T00:58:41.620Z,15.10
2018-06-29T01:01:10.675Z,15.10
2018-06-29T01:03:39.888Z,15.00
2018-06-29T01:06:08.955Z,15.20
2018-06-29T01:08:37.954Z,15.20
2018-06-29T01:11:07.449Z,15.20
2018-06-29T01:16:05.168Z,15.20
2018-06-29T01:18:34.228Z,15.20
2018-06-29T01:23:32.899Z,15.20
2018-06-29T01:26:01.948Z,15.20
2018-06-29T01:28:30.981Z,15.00
2018-06-29T01:31:00.048Z,15.00
2018-06-29T01:33:29.363Z,14.90
2018-06-29T01:35:58.493Z,15.00
2018-06-29T01:40:56.500Z,15.00
2018-06-29T01:43:25.536Z,15.00
2018-06-29T01:45:54.582Z,15.00
2018-06-29T01:50:52.231Z,15.10
2018-06-29T01:55:49.865Z,15.20
2018-06-29T01:58:18.878Z,15.20
2018-06-29T02:00:47.919Z,15.20
2018-06-29T02:03:16.940Z,15.30
2018-06-29T02:05:45.960Z,15.30
2018-06-29T02:08:15.056Z,15.30
2018-06-29T02:10:44.073Z,15.30
2018-06-29T02:13:13.123Z,15.30
2018-06-29T02:15:42.141Z,15.30
2018-06-29T02:18:11.184Z,15.40
2018-06-29T02:20:40.207Z,15.30
2018-06-29T02:23:09.235Z,15.20
2018-06-29T02:25:38.298Z,15.10
2018-06-29T02:28:07.527Z,15.20
2018-06-29T02:30:36.559Z,15.10
2018-06-29T02:33:05.836Z,14.80
2018-06-29T02:38:03.837Z,15.10
2018-06-29T02:40:32.888Z,15.10
2018-06-29T02:43:02.013Z,15.00
2018-06-29T02:45:31.176Z,14.90
2018-06-29T02:48:00.183Z,14.90
2018-06-29T02:50:29.227Z,14.80
2018-06-29T02:52:58.284Z,14.80
2018-06-29T02:55:27.381Z,14.80
2018-06-29T02:57:56.724Z,14.90
2018-06-29T03:05:23.076Z,14.90
2018-06-29T03:10:21.029Z,14.90
2018-06-29T03:12:50.063Z,15.00
2018-06-29T03:15:19.095Z,15.00
2018-06-29T03:17:48.103Z,15.00
2018-06-29T03:20:17.164Z,14.90
2018-06-29T03:22:46.210Z,14.80
2018-06-29T03:25:15.266Z,14.70
2018-06-29T03:27:44.275Z,14.50
2018-06-29T03:30:13.293Z,14.60
2018-06-29T03:32:42.341Z,14.70
2018-06-29T03:35:11.372Z,14.90
2018-06-29T03:37:40.411Z,14.90
2018-06-29T03:40:09.493Z,14.80
2018-06-29T03:42:38.825Z,14.70
2018-06-29T03:45:07.876Z,14.70
2018-06-29T03:47:36.906Z,14.70
2018-06-29T03:50:06.108Z,14.80
2018-06-29T03:55:04.245Z,14.90
2018-06-29T04:02:37.075Z,14.80
2018-06-29T04:05:06.087Z,14.80
2018-06-29T04:07:35.282Z,14.70
2018-06-29T04:10:04.379Z,14.70
2018-06-29T04:12:33.412Z,14.70
2018-06-29T04:15:02.472Z,14.70
2018-06-29T04:17:31.530Z,14.80
2018-06-29T04:20:00.628Z,14.90
2018-06-29T04:22:29.852Z,14.90
2018-06-29T04:25:02.240Z,15.00
2018-06-29T04:27:31.651Z,14.90
2018-06-29T04:30:00.704Z,14.90
2018-06-29T04:32:29.939Z,14.90
2018-06-29T04:37:27.859Z,15.00
2018-06-29T04:39:56.907Z,15.10
2018-06-29T04:42:25.915Z,15.20
2018-06-29T04:44:54.947Z,15.20
2018-06-29T04:47:24.111Z,15.20
2018-06-29T04:49:53.140Z,15.30
2018-06-29T04:57:19.515Z,15.50
2018-06-29T05:02:17.156Z,15.60
2018-06-29T05:07:15.202Z,15.70
2018-06-29T05:09:44.180Z,15.80
2018-06-29T05:12:13.265Z,15.90
2018-06-29T05:17:11.012Z,16.00
2018-06-29T05:19:40.419Z,16.00
2018-06-29T05:22:09.504Z,16.20
2018-06-29T05:24:38.530Z,16.20
2018-06-29T05:27:07.548Z,16.30
2018-06-29T05:29:36.564Z,16.20
2018-06-29T05:32:05.602Z,16.40
2018-06-29T05:34:34.657Z,16.40
2018-06-29T05:37:03.741Z,16.50
2018-06-29T05:39:32.763Z,16.60
2018-06-29T05:42:01.808Z,16.70
2018-06-29T05:44:30.859Z,17.00
2018-06-29T05:46:59.933Z,17.00
2018-06-29T05:49:28.976Z,17.30
2018-06-29T05:51:58.003Z,17.10
2018-06-29T05:56:55.828Z,17.20
2018-06-29T06:06:50.971Z,17.30
2018-06-29T06:11:48.861Z,17.60
2018-06-29T06:14:17.929Z,17.60
2018-06-29T06:21:49.728Z,18.40
2018-06-29T06:24:18.937Z,18.70
2018-06-29T06:26:48.195Z,18.70
2018-06-29T06:29:17.259Z,19.00
2018-06-29T06:39:12.837Z,18.90
2018-06-29T06:44:11.200Z,19.60
2018-06-29T06:49:09.213Z,19.60
2018-06-29T06:56:35.575Z,20.00
2018-06-29T06:59:04.694Z,20.20
2018-06-29T07:01:33.746Z,20.30
2018-06-29T07:06:31.379Z,21.70
2018-06-29T07:09:00.485Z,21.20
2018-06-29T07:11:29.825Z,21.50
2018-06-29T07:18:56.059Z,21.40
2018-06-29T07:21:25.114Z,22.00
2018-06-29T07:26:23.007Z,22.20
2018-06-29T07:28:52.036Z,21.60
2018-06-29T07:31:21.387Z,22.10
2018-06-29T07:33:50.419Z,22.20
2018-06-29T07:36:19.923Z,22.90
2018-06-29T07:38:48.984Z,23.20
2018-06-29T07:41:18.242Z,23.50
2018-06-29T07:43:47.265Z,23.40
2018-06-29T07:46:18.436Z,22.70
2018-06-29T07:56:13.828Z,23.30
2018-06-29T08:06:08.860Z,22.30
2018-06-29T08:08:37.900Z,23.30
2018-06-29T08:16:04.193Z,22.60
2018-06-29T08:18:33.215Z,23.10
2018-06-29T08:21:02.248Z,23.40
2018-06-29T08:26:12.619Z,23.70
2018-06-29T08:31:11.123Z,24.20
2018-06-29T08:36:09.371Z,24.30
2018-06-29T08:38:38.769Z,24.60
2018-06-29T08:41:10.093Z,24.90
2018-06-29T08:43:39.157Z,25.20
2018-06-29T08:46:08.641Z,25.40
2018-06-29T08:48:37.675Z,25.40
2018-06-29T08:51:06.826Z,25.70
2018-06-29T08:53:36.540Z,24.90
2018-06-29T08:56:05.585Z,24.50
2018-06-29T09:06:00.975Z,24.60
2018-06-29T09:13:27.266Z,26.40
2018-06-29T09:15:56.288Z,25.40
2018-06-29T09:18:25.308Z,25.10
2018-06-29T09:20:54.419Z,26.00
2018-06-29T09:25:52.045Z,27.10
2018-06-29T09:28:21.092Z,25.60
2018-06-29T09:30:50.113Z,25.90
2018-06-29T09:35:47.781Z,26.20
2018-06-29T09:40:45.432Z,26.60
2018-06-29T09:50:41.304Z,27.60
2018-06-29T09:53:10.336Z,26.40
2018-06-29T10:03:06.157Z,25.20
2018-06-29T10:05:35.240Z,25.70
2018-06-29T10:15:30.136Z,26.10
2018-06-29T10:22:56.384Z,26.20
2018-06-29T10:25:25.507Z,26.80
2018-06-29T10:32:51.885Z,29.20
2018-06-29T10:35:21.219Z,29.00
2018-06-29T10:41:28.677Z,28.50
2018-06-29T10:43:57.716Z,28.30
2018-06-29T10:46:26.784Z,27.70
2018-06-29T10:48:55.831Z,28.20
2018-06-29T10:51:24.884Z,27.70
2018-06-29T10:53:53.930Z,26.50
2018-06-29T10:56:22.963Z,26.90
2018-06-29T10:58:52.157Z,26.90
2018-06-29T11:01:21.458Z,28.00
2018-06-29T11:03:50.924Z,28.90
2018-06-29T11:06:19.933Z,29.50
2018-06-29T11:08:48.976Z,28.80
2018-06-29T11:11:18.060Z,28.50
2018-06-29T11:13:47.256Z,28.30
2018-06-29T11:16:16.292Z,27.60
2018-06-29T11:18:45.787Z,27.90
2018-06-29T11:21:15.017Z,28.10
2018-06-29T11:28:41.312Z,28.60
2018-06-29T11:31:10.691Z,29.70
2018-06-29T11:36:08.333Z,28.00
2018-06-29T11:43:34.883Z,29.20
2018-06-29T11:46:04.172Z,30.30
2018-06-29T11:48:33.209Z,29.90
2018-06-29T11:51:02.531Z,28.70
2018-06-29T11:53:31.552Z,29.10
2018-06-29T11:58:29.204Z,29.40
2018-06-29T12:05:55.564Z,27.70
2018-06-29T12:10:53.267Z,29.70
2018-06-29T12:13:22.287Z,30.10
2018-06-29T12:15:51.384Z,28.40
2018-06-29T12:18:20.583Z,28.60
2018-06-29T12:20:49.629Z,29.70
2018-06-29T12:28:16.171Z,28.30
2018-06-29T12:33:13.915Z,29.20
2018-06-29T12:38:11.567Z,28.20
2018-06-29T12:40:40.596Z,29.80
2018-06-29T12:45:38.299Z,30.30
2018-06-29T12:50:36.112Z,30.20
2018-06-29T12:53:05.890Z,29.90
2018-06-29T12:58:03.963Z,30.80
2018-06-29T13:00:32.643Z,30.50
2018-06-29T13:03:01.660Z,30.60
2018-06-29T13:05:30.735Z,30.80
2018-06-29T13:07:59.726Z,31.10
2018-06-29T13:10:28.771Z,31.00
2018-06-29T13:12:57.799Z,31.60
2018-06-29T13:15:26.864Z,31.90
2018-06-29T13:17:55.867Z,30.70
2018-06-29T13:20:24.959Z,30.20
2018-06-29T13:22:54.053Z,29.20
2018-06-29T13:25:23.356Z,29.00
2018-06-29T13:27:52.399Z,30.50
2018-06-29T13:30:21.480Z,30.30
2018-06-29T13:32:50.576Z,30.10
2018-06-29T13:35:20.040Z,30.20
2018-06-29T13:37:49.072Z,30.00
2018-06-29T13:40:18.175Z,30.00
2018-06-29T13:42:47.210Z,30.00
2018-06-29T13:45:16.275Z,30.30
2018-06-29T13:47:45.354Z,30.40
2018-06-29T13:50:14.553Z,30.90
2018-06-29T13:52:43.751Z,30.30
2018-06-29T13:55:12.743Z,30.40
2018-06-29T13:57:41.787Z,29.60
2018-06-29T14:00:10.877Z,29.50
2018-06-29T14:02:39.940Z,29.50
2018-06-29T14:05:09.012Z,29.80
2018-06-29T14:07:38.086Z,31.60
2018-06-29T14:10:07.127Z,30.40
2018-06-29T14:12:36.159Z,30.30
2018-06-29T14:15:05.220Z,30.30
2018-06-29T14:17:34.272Z,30.80
2018-06-29T14:20:03.568Z,31.50
2018-06-29T14:22:32.883Z,31.90
2018-06-29T14:25:01.952Z,31.00
2018-06-29T14:27:31.040Z,31.20
2018-06-29T14:32:29.174Z,31.20
2018-06-29T14:34:58.555Z,30.40
2018-06-29T14:37:27.876Z,30.90
2018-06-29T14:39:56.955Z,31.10
2018-06-29T14:42:26.086Z,30.70
2018-06-29T14:44:55.107Z,31.70
2018-06-29T14:47:24.176Z,31.50
2018-06-29T14:49:53.451Z,31.90
2018-06-29T14:52:22.456Z,32.20
2018-06-29T14:54:51.512Z,31.60
2018-06-29T14:57:20.668Z,30.70
2018-06-29T14:59:49.808Z,30.40
2018-06-29T15:02:18.923Z,30.40
2018-06-29T15:04:47.989Z,31.30
2018-06-29T15:07:17.037Z,32.20
2018-06-29T15:09:46.358Z,31.40
2018-06-29T15:12:15.428Z,31.50
2018-06-29T15:14:44.864Z,30.70
2018-06-29T15:17:13.917Z,31.60
2018-06-29T15:19:42.965Z,30.40
2018-06-29T15:27:09.688Z,28.80
2018-06-29T15:29:38.746Z,29.40
2018-06-29T15:32:07.896Z,30.00
2018-06-29T15:37:05.603Z,29.00
2018-06-29T15:39:34.654Z,28.70
2018-06-29T15:42:03.733Z,28.50
2018-06-29T15:44:32.798Z,29.10
2018-06-29T15:47:01.895Z,29.60
2018-06-29T15:49:30.951Z,28.90
2018-06-29T15:52:00.055Z,29.20
2018-06-29T15:54:29.075Z,29.20
2018-06-29T15:56:58.101Z,29.00
2018-06-29T15:59:27.341Z,28.90
2018-06-29T16:01:56.408Z,28.70
2018-06-29T16:04:25.477Z,29.00
2018-06-29T16:06:54.735Z,29.10
2018-06-29T16:09:23.714Z,29.50
2018-06-29T16:11:52.894Z,29.20
2018-06-29T16:14:21.985Z,28.80
2018-06-29T16:16:51.048Z,28.50
2018-06-29T16:19:20.917Z,28.30
2018-06-29T16:21:49.952Z,28.60
2018-06-29T16:24:18.987Z,28.70
2018-06-29T16:29:16.661Z,28.10
2018-06-29T16:31:45.852Z,28.50
2018-06-29T16:34:15.336Z,28.60
2018-06-29T16:39:13.722Z,28.40
2018-06-29T16:41:42.839Z,28.30
2018-06-29T16:44:11.885Z,27.90
2018-06-29T16:46:40.919Z,28.40
2018-06-29T16:49:10.011Z,27.60
2018-06-29T16:51:39.089Z,27.90
2018-06-29T16:54:08.476Z,28.00
2018-06-29T16:56:37.503Z,27.80
2018-06-29T16:59:06.755Z,27.90
2018-06-29T17:04:04.551Z,27.00
2018-06-29T17:06:33.663Z,27.40
2018-06-29T17:09:02.792Z,27.70
2018-06-29T17:11:31.962Z,27.70
2018-06-29T17:14:01.347Z,27.10
2018-06-29T17:16:30.400Z,27.30
2018-06-29T17:18:59.674Z,27.40
2018-06-29T17:21:28.688Z,27.10
2018-06-29T17:26:26.677Z,26.60
2018-06-29T17:28:55.902Z,25.80
2018-06-29T17:33:53.808Z,24.30
2018-06-29T17:36:22.758Z,24.10
2018-06-29T17:38:51.796Z,24.00
2018-06-29T17:41:20.846Z,24.00
2018-06-29T17:43:49.899Z,23.70
2018-06-29T17:46:18.959Z,23.80
2018-06-29T17:48:47.996Z,23.80
2018-06-29T17:51:17.067Z,23.80
2018-06-29T17:53:46.170Z,23.80
2018-06-29T18:01:12.507Z,23.50
2018-06-29T18:06:10.171Z,23.40
2018-06-29T18:08:39.210Z,23.30
2018-06-29T18:11:08.268Z,23.20
2018-06-29T18:13:37.431Z,23.20
2018-06-29T18:16:07.160Z,23.20
2018-06-29T18:23:33.563Z,22.90
2018-06-29T18:26:02.571Z,22.90
2018-06-29T18:28:31.639Z,22.80
2018-06-29T18:31:00.772Z,22.70
2018-06-29T18:43:24.523Z,22.20
2018-06-29T18:45:53.555Z,21.90
2018-06-29T18:58:17.087Z,21.40
2018-06-29T19:05:43.606Z,21.10
2018-06-29T19:08:12.649Z,21.10
2018-06-29T19:18:07.527Z,20.60
2018-06-29T19:20:36.600Z,20.40
2018-06-29T19:37:57.560Z,19.70
2018-06-29T19:45:26.886Z,19.60
2018-06-29T19:47:55.860Z,19.40
2018-06-29T19:50:25.421Z,19.30
2018-06-29T19:57:51.672Z,19.20
2018-06-29T20:00:20.711Z,19.10
2018-06-29T20:02:49.767Z,19.00
2018-06-29T20:07:47.471Z,18.90
2018-06-29T20:10:16.487Z,18.70
2018-06-29T20:12:45.528Z,18.60
2018-06-29T20:17:43.206Z,18.50
2018-06-29T20:22:40.892Z,18.50
2018-06-29T20:25:09.936Z,18.40
2018-06-29T20:27:38.950Z,18.40
2018-06-29T20:30:08.639Z,18.30
2018-06-29T20:35:06.799Z,18.10
2018-06-29T20:37:35.849Z,18.20
2018-06-29T20:40:05.820Z,18.00
2018-06-29T20:42:35.152Z,17.90
2018-06-29T20:45:04.249Z,17.90
2018-06-29T20:47:33.272Z,17.80
2018-06-29T20:50:02.612Z,17.60
2018-06-29T20:52:31.683Z,17.50
2018-06-29T20:55:00.748Z,17.50
2018-06-29T20:57:29.784Z,17.40
2018-06-29T20:59:59.968Z,17.40
2018-06-29T21:02:28.999Z,17.50
2018-06-29T21:04:58.055Z,17.40
2018-06-29T21:07:27.082Z,17.40
2018-06-29T21:09:56.095Z,17.20
2018-06-29T21:12:25.199Z,17.10
2018-06-29T21:14:54.372Z,17.10
2018-06-29T21:17:23.408Z,17.10
2018-06-29T21:19:52.417Z,17.00
2018-06-29T21:22:21.762Z,16.90
2018-06-29T21:24:50.823Z,16.70
2018-06-29T21:27:19.872Z,16.70
2018-06-29T21:29:48.883Z,16.70
2018-06-29T21:32:17.898Z,16.60
2018-06-29T21:34:46.944Z,16.50
2018-06-29T21:37:16.003Z,16.40
2018-06-29T21:39:45.127Z,16.30
2018-06-29T21:42:14.164Z,16.30
2018-06-29T21:44:43.280Z,16.10
2018-06-29T21:47:12.399Z,16.10
2018-06-29T21:49:41.386Z,16.20
2018-06-29T21:52:10.448Z,16.20
2018-06-29T21:54:39.759Z,16.00
2018-06-29T21:57:11.805Z,16.10
2018-06-29T22:02:16.236Z,16.00
2018-06-29T22:04:45.407Z,16.00
2018-06-29T22:09:43.016Z,17.40
2018-06-29T22:12:12.169Z,15.80
2018-06-29T22:14:41.293Z,15.80
2018-06-29T22:17:10.320Z,15.80
2018-06-29T22:24:36.624Z,15.50
2018-06-29T22:29:34.550Z,15.30
2018-06-29T22:32:03.600Z,15.30
2018-06-29T22:37:01.531Z,15.30
2018-06-29T22:41:59.212Z,15.20
2018-06-29T22:44:28.282Z,15.10
2018-06-29T22:49:25.927Z,14.90
2018-06-29T22:54:23.595Z,14.90
2018-06-29T22:56:52.639Z,14.80
2018-06-29T22:59:21.646Z,14.80
2018-06-29T23:19:14.900Z,14.40
2018-06-29T23:24:12.820Z,14.30
2018-06-29T23:29:10.454Z,14.20
2018-06-29T23:34:08.363Z,14.20
2018-06-29T23:39:08.572Z,14.00
2018-06-29T23:54:01.112Z,13.80
2018-06-29T23:58:58.927Z,13.70
